sensor_id;sensor_type;location;lat;lon;timestamp;temperature;humidity
22629;DHT22;11481;53.694;9.910;2023-04-03T00:00:40;3.70;99.90
22629;DHT22;11481;53.694;9.910;2023-04-03T00:03:07;3.70;99.90
22629;DHT22;11481;53.694;9.910;2023-04-03T00:05:34;3.60;99.90
22629;DHT22;11481;53.694;9.910;2023-04-03T00:08:02;3.60;99.90
22629;DHT22;11481;53.694;9.910;2023-04-03T00:10:29;3.50;99.90
22629;DHT22;11481;53.694;9.910;2023-04-03T00:12:56;3.60;99.90
22629;DHT22;11481;53.694;9.910;2023-04-03T00:15:22;3.60;99.90
22629;DHT22;11481;53.694;9.910;2023-04-03T00:17:49;3.70;99.90
22629;DHT22;11481;53.694;9.910;2023-04-03T00:20:16;3.70;99.90
22629;DHT22;11481;53.694;9.910;2023-04-03T00:22:43;3.80;99.90
22629;DHT22;11481;53.694;9.910;2023-04-03T00:25:10;3.90;99.90
22629;DHT22;11481;53.694;9.910;2023-04-03T00:27:37;3.80;99.90
22629;DHT22;11481;53.694;9.910;2023-04-03T00:30:05;3.70;99.90
22629;DHT22;11481;53.694;9.910;2023-04-03T00:32:33;3.70;99.90
22629;DHT22;11481;53.694;9.910;2023-04-03T00:34:59;3.70;99.90
22629;DHT22;11481;53.694;9.910;2023-04-03T00:37:26;3.60;99.90
22629;DHT22;11481;53.694;9.910;2023-04-03T00:39:53;3.60;99.90
22629;DHT22;11481;53.694;9.910;2023-04-03T00:42:20;3.50;99.90
22629;DHT22;11481;53.694;9.910;2023-04-03T00:47:16;3.40;99.90
22629;DHT22;11481;53.694;9.910;2023-04-03T00:49:45;3.40;99.90
22629;DHT22;11481;53.694;9.910;2023-04-03T00:52:15;3.40;99.90
22629;DHT22;11481;53.694;9.910;2023-04-03T00:54:43;3.20;99.90
22629;DHT22;11481;53.694;9.910;2023-04-03T00:57:12;3.20;99.90
22629;DHT22;11481;53.694;9.910;2023-04-03T00:59:44;3.20;99.90
22629;DHT22;11481;53.694;9.910;2023-04-03T01:02:12;3.30;99.90
22629;DHT22;11481;53.694;9.910;2023-04-03T01:04:40;3.30;99.90
22629;DHT22;11481;53.694;9.910;2023-04-03T01:07:19;3.30;99.90
22629;DHT22;11481;53.694;9.910;2023-04-03T01:09:48;3.20;99.90
22629;DHT22;11481;53.694;9.910;2023-04-03T01:12:21;3.00;99.90
22629;DHT22;11481;53.694;9.910;2023-04-03T01:14:54;3.00;99.90
22629;DHT22;11481;53.694;9.910;2023-04-03T01:25:56;2.80;99.90
22629;DHT22;11481;53.694;9.910;2023-04-03T01:28:28;2.70;99.90
22629;DHT22;11481;53.694;9.910;2023-04-03T01:33:37;2.60;99.90
22629;DHT22;11481;53.694;9.910;2023-04-03T01:36:05;2.60;99.90
22629;DHT22;11481;53.694;9.910;2023-04-03T01:38:32;2.60;99.90
22629;DHT22;11481;53.694;9.910;2023-04-03T01:40:59;2.50;99.90
22629;DHT22;11481;53.694;9.910;2023-04-03T01:43:26;2.50;99.90
22629;DHT22;11481;53.694;9.910;2023-04-03T01:45:53;2.40;99.90
22629;DHT22;11481;53.694;9.910;2023-04-03T01:48:21;2.40;99.90
22629;DHT22;11481;53.694;9.910;2023-04-03T01:50:48;2.40;99.90
22629;DHT22;11481;53.694;9.910;2023-04-03T01:53:15;2.30;99.90
22629;DHT22;11481;53.694;9.910;2023-04-03T01:55:41;2.20;99.90
22629;DHT22;11481;53.694;9.910;2023-04-03T01:58:09;2.20;99.90
22629;DHT22;11481;53.694;9.910;2023-04-03T02:00:36;2.20;99.90
22629;DHT22;11481;53.694;9.910;2023-04-03T02:03:03;2.20;99.90
22629;DHT22;11481;53.694;9.910;2023-04-03T02:05:30;2.20;99.90
22629;DHT22;11481;53.694;9.910;2023-04-03T02:07:57;2.10;99.90
22629;DHT22;11481;53.694;9.910;2023-04-03T02:10:24;2.10;99.90
22629;DHT22;11481;53.694;9.910;2023-04-03T02:12:51;2.00;99.90
22629;DHT22;11481;53.694;9.910;2023-04-03T02:15:17;1.90;99.90
22629;DHT22;11481;53.694;9.910;2023-04-03T02:17:44;2.00;99.90
22629;DHT22;11481;53.694;9.910;2023-04-03T02:20:11;2.00;99.90
22629;DHT22;11481;53.694;9.910;2023-04-03T02:22:38;1.90;99.90
22629;DHT22;11481;53.694;9.910;2023-04-03T02:25:05;1.90;99.90
22629;DHT22;11481;53.694;9.910;2023-04-03T02:27:31;1.80;99.90
22629;DHT22;11481;53.694;9.910;2023-04-03T02:29:58;1.80;99.90
22629;DHT22;11481;53.694;9.910;2023-04-03T02:32:25;1.80;99.90
22629;DHT22;11481;53.694;9.910;2023-04-03T02:34:52;1.70;99.90
22629;DHT22;11481;53.694;9.910;2023-04-03T02:37:18;1.70;99.90
22629;DHT22;11481;53.694;9.910;2023-04-03T02:39:45;1.70;99.90
22629;DHT22;11481;53.694;9.910;2023-04-03T02:42:12;1.70;99.90
22629;DHT22;11481;53.694;9.910;2023-04-03T02:44:38;1.70;99.90
22629;DHT22;11481;53.694;9.910;2023-04-03T02:47:05;1.80;99.90
22629;DHT22;11481;53.694;9.910;2023-04-03T02:49:32;1.90;99.90
22629;DHT22;11481;53.694;9.910;2023-04-03T02:51:58;2.00;99.90
22629;DHT22;11481;53.694;9.910;2023-04-03T02:54:27;2.00;99.90
22629;DHT22;11481;53.694;9.910;2023-04-03T02:56:57;2.00;99.90
22629;DHT22;11481;53.694;9.910;2023-04-03T02:59:24;2.10;99.90
22629;DHT22;11481;53.694;9.910;2023-04-03T03:01:53;2.00;99.90
22629;DHT22;11481;53.694;9.910;2023-04-03T03:04:21;1.90;99.90
22629;DHT22;11481;53.694;9.910;2023-04-03T03:06:49;1.90;99.90
22629;DHT22;11481;53.694;9.910;2023-04-03T03:09:15;1.80;99.90
22629;DHT22;11481;53.694;9.910;2023-04-03T03:11:43;1.70;99.90
22629;DHT22;11481;53.694;9.910;2023-04-03T03:14:10;1.70;99.90
22629;DHT22;11481;53.694;9.910;2023-04-03T03:16:37;1.60;99.90
22629;DHT22;11481;53.694;9.910;2023-04-03T03:19:03;1.50;99.90
22629;DHT22;11481;53.694;9.910;2023-04-03T03:21:31;1.50;99.90
22629;DHT22;11481;53.694;9.910;2023-04-03T03:23:58;1.50;99.90
22629;DHT22;11481;53.694;9.910;2023-04-03T03:26:27;1.40;99.90
22629;DHT22;11481;53.694;9.910;2023-04-03T03:28:53;1.40;99.90
22629;DHT22;11481;53.694;9.910;2023-04-03T03:31:20;1.40;99.90
22629;DHT22;11481;53.694;9.910;2023-04-03T03:33:47;1.40;99.90
22629;DHT22;11481;53.694;9.910;2023-04-03T03:36:14;1.30;99.90
22629;DHT22;11481;53.694;9.910;2023-04-03T03:38:41;1.30;99.90
22629;DHT22;11481;53.694;9.910;2023-04-03T03:41:08;1.30;99.90
22629;DHT22;11481;53.694;9.910;2023-04-03T03:43:34;1.30;99.90
22629;DHT22;11481;53.694;9.910;2023-04-03T03:46:01;1.20;99.90
22629;DHT22;11481;53.694;9.910;2023-04-03T03:48:28;1.20;99.90
22629;DHT22;11481;53.694;9.910;2023-04-03T03:50:55;1.20;99.90
22629;DHT22;11481;53.694;9.910;2023-04-03T03:53:22;1.10;99.90
22629;DHT22;11481;53.694;9.910;2023-04-03T03:55:49;1.10;99.90
22629;DHT22;11481;53.694;9.910;2023-04-03T03:58:16;1.10;99.90
22629;DHT22;11481;53.694;9.910;2023-04-03T04:00:42;1.10;99.90
22629;DHT22;11481;53.694;9.910;2023-04-03T04:03:09;1.00;99.90
22629;DHT22;11481;53.694;9.910;2023-04-03T04:05:36;1.00;99.90
22629;DHT22;11481;53.694;9.910;2023-04-03T04:08:03;1.00;99.90
22629;DHT22;11481;53.694;9.910;2023-04-03T04:10:30;1.00;99.90
22629;DHT22;11481;53.694;9.910;2023-04-03T04:12:57;0.90;99.90
22629;DHT22;11481;53.694;9.910;2023-04-03T04:15:24;0.90;99.90
22629;DHT22;11481;53.694;9.910;2023-04-03T04:17:52;0.80;99.90
22629;DHT22;11481;53.694;9.910;2023-04-03T04:20:20;0.80;99.90
22629;DHT22;11481;53.694;9.910;2023-04-03T04:22:47;0.80;99.90
22629;DHT22;11481;53.694;9.910;2023-04-03T04:25:14;0.90;99.90
22629;DHT22;11481;53.694;9.910;2023-04-03T04:27:41;0.80;99.90
22629;DHT22;11481;53.694;9.910;2023-04-03T04:30:09;0.80;99.90
22629;DHT22;11481;53.694;9.910;2023-04-03T04:32:39;0.80;99.90
22629;DHT22;11481;53.694;9.910;2023-04-03T04:35:06;0.80;99.90
22629;DHT22;11481;53.694;9.910;2023-04-03T04:37:33;0.80;99.90
22629;DHT22;11481;53.694;9.910;2023-04-03T04:40:00;0.60;99.90
22629;DHT22;11481;53.694;9.910;2023-04-03T04:42:27;0.60;99.90
22629;DHT22;11481;53.694;9.910;2023-04-03T04:44:54;0.60;99.90
22629;DHT22;11481;53.694;9.910;2023-04-03T04:47:21;0.60;99.90
22629;DHT22;11481;53.694;9.910;2023-04-03T04:49:48;0.50;99.90
22629;DHT22;11481;53.694;9.910;2023-04-03T04:52:15;0.50;99.90
22629;DHT22;11481;53.694;9.910;2023-04-03T04:54:41;0.50;99.90
22629;DHT22;11481;53.694;9.910;2023-04-03T04:57:08;0.50;99.90
22629;DHT22;11481;53.694;9.910;2023-04-03T04:59:35;0.50;99.90
22629;DHT22;11481;53.694;9.910;2023-04-03T05:02:02;0.50;99.90
22629;DHT22;11481;53.694;9.910;2023-04-03T05:04:31;0.50;99.90
22629;DHT22;11481;53.694;9.910;2023-04-03T05:06:57;0.50;99.90
22629;DHT22;11481;53.694;9.910;2023-04-03T05:09:25;0.50;99.90
22629;DHT22;11481;53.694;9.910;2023-04-03T05:11:52;0.50;99.90
22629;DHT22;11481;53.694;9.910;2023-04-03T05:14:22;0.50;99.90
22629;DHT22;11481;53.694;9.910;2023-04-03T05:16:48;0.50;99.90
22629;DHT22;11481;53.694;9.910;2023-04-03T05:19:20;0.60;99.90
22629;DHT22;11481;53.694;9.910;2023-04-03T05:21:48;0.70;99.90
22629;DHT22;11481;53.694;9.910;2023-04-03T05:24:15;0.70;99.90
22629;DHT22;11481;53.694;9.910;2023-04-03T05:26:43;0.70;99.90
22629;DHT22;11481;53.694;9.910;2023-04-03T05:29:10;0.80;99.90
22629;DHT22;11481;53.694;9.910;2023-04-03T05:31:37;0.80;99.90
22629;DHT22;11481;53.694;9.910;2023-04-03T05:34:04;0.80;99.90
22629;DHT22;11481;53.694;9.910;2023-04-03T05:36:30;0.80;99.90
22629;DHT22;11481;53.694;9.910;2023-04-03T05:39:00;0.80;99.90
22629;DHT22;11481;53.694;9.910;2023-04-03T05:41:27;0.80;99.90
22629;DHT22;11481;53.694;9.910;2023-04-03T05:43:53;0.80;99.90
22629;DHT22;11481;53.694;9.910;2023-04-03T05:46:21;0.80;99.90
22629;DHT22;11481;53.694;9.910;2023-04-03T05:48:49;0.80;99.90
22629;DHT22;11481;53.694;9.910;2023-04-03T05:51:25;0.80;99.90
22629;DHT22;11481;53.694;9.910;2023-04-03T05:54:28;0.90;99.90
22629;DHT22;11481;53.694;9.910;2023-04-03T05:56:55;0.90;99.90
22629;DHT22;11481;53.694;9.910;2023-04-03T05:59:22;1.00;99.90
22629;DHT22;11481;53.694;9.910;2023-04-03T06:01:49;1.10;99.90
22629;DHT22;11481;53.694;9.910;2023-04-03T06:04:16;1.20;99.90
22629;DHT22;11481;53.694;9.910;2023-04-03T06:06:50;1.20;99.90
22629;DHT22;11481;53.694;9.910;2023-04-03T06:09:23;1.40;99.90
22629;DHT22;11481;53.694;9.910;2023-04-03T06:11:52;1.50;99.90
22629;DHT22;11481;53.694;9.910;2023-04-03T06:14:19;1.50;99.90
22629;DHT22;11481;53.694;9.910;2023-04-03T06:16:46;1.60;99.90
22629;DHT22;11481;53.694;9.910;2023-04-03T06:19:13;1.70;99.90
22629;DHT22;11481;53.694;9.910;2023-04-03T06:21:40;1.80;99.90
22629;DHT22;11481;53.694;9.910;2023-04-03T06:24:07;1.90;99.90
22629;DHT22;11481;53.694;9.910;2023-04-03T06:26:34;2.00;99.90
22629;DHT22;11481;53.694;9.910;2023-04-03T06:29:01;2.10;99.90
22629;DHT22;11481;53.694;9.910;2023-04-03T06:31:30;2.10;99.90
22629;DHT22;11481;53.694;9.910;2023-04-03T06:33:58;2.20;99.90
22629;DHT22;11481;53.694;9.910;2023-04-03T06:36:24;2.30;99.90
22629;DHT22;11481;53.694;9.910;2023-04-03T06:38:52;2.40;99.90
22629;DHT22;11481;53.694;9.910;2023-04-03T06:41:18;2.50;99.90
22629;DHT22;11481;53.694;9.910;2023-04-03T06:43:45;2.60;99.90
22629;DHT22;11481;53.694;9.910;2023-04-03T06:46:16;2.70;99.90
22629;DHT22;11481;53.694;9.910;2023-04-03T06:48:44;2.80;99.90
22629;DHT22;11481;53.694;9.910;2023-04-03T06:51:22;2.90;99.90
22629;DHT22;11481;53.694;9.910;2023-04-03T06:53:50;3.00;99.90
22629;DHT22;11481;53.694;9.910;2023-04-03T06:56:20;3.00;99.90
22629;DHT22;11481;53.694;9.910;2023-04-03T06:58:48;3.20;99.90
22629;DHT22;11481;53.694;9.910;2023-04-03T07:01:16;3.20;99.90
22629;DHT22;11481;53.694;9.910;2023-04-03T07:03:43;3.30;99.90
22629;DHT22;11481;53.694;9.910;2023-04-03T07:06:12;3.40;99.90
22629;DHT22;11481;53.694;9.910;2023-04-03T07:08:39;3.50;99.90
22629;DHT22;11481;53.694;9.910;2023-04-03T07:11:06;3.60;99.90
22629;DHT22;11481;53.694;9.910;2023-04-03T07:13:34;3.60;99.90
22629;DHT22;11481;53.694;9.910;2023-04-03T07:16:02;3.80;99.90
22629;DHT22;11481;53.694;9.910;2023-04-03T07:18:33;3.90;99.90
22629;DHT22;11481;53.694;9.910;2023-04-03T07:21:01;3.90;99.90
22629;DHT22;11481;53.694;9.910;2023-04-03T07:23:28;4.00;99.90
22629;DHT22;11481;53.694;9.910;2023-04-03T07:25:55;4.20;99.90
22629;DHT22;11481;53.694;9.910;2023-04-03T07:28:22;4.20;99.90
22629;DHT22;11481;53.694;9.910;2023-04-03T07:30:58;4.40;99.90
22629;DHT22;11481;53.694;9.910;2023-04-03T07:33:26;4.60;99.90
22629;DHT22;11481;53.694;9.910;2023-04-03T07:35:56;4.60;99.90
22629;DHT22;11481;53.694;9.910;2023-04-03T07:38:24;4.70;99.90
22629;DHT22;11481;53.694;9.910;2023-04-03T07:40:51;4.70;99.90
22629;DHT22;11481;53.694;9.910;2023-04-03T07:43:20;4.80;99.90
22629;DHT22;11481;53.694;9.910;2023-04-03T07:45:48;4.90;99.90
22629;DHT22;11481;53.694;9.910;2023-04-03T07:48:19;4.90;99.90
22629;DHT22;11481;53.694;9.910;2023-04-03T07:50:47;5.00;99.90
22629;DHT22;11481;53.694;9.910;2023-04-03T07:53:14;5.10;99.90
22629;DHT22;11481;53.694;9.910;2023-04-03T07:55:41;5.10;99.90
22629;DHT22;11481;53.694;9.910;2023-04-03T07:58:14;5.20;99.90
22629;DHT22;11481;53.694;9.910;2023-04-03T08:00:41;5.20;99.90
22629;DHT22;11481;53.694;9.910;2023-04-03T08:03:09;5.30;99.90
22629;DHT22;11481;53.694;9.910;2023-04-03T08:05:43;5.50;99.90
22629;DHT22;11481;53.694;9.910;2023-04-03T08:08:13;5.50;99.90
22629;DHT22;11481;53.694;9.910;2023-04-03T08:10:40;5.70;99.90
22629;DHT22;11481;53.694;9.910;2023-04-03T08:13:07;5.80;99.90
22629;DHT22;11481;53.694;9.910;2023-04-03T08:15:35;5.80;99.90
22629;DHT22;11481;53.694;9.910;2023-04-03T08:18:03;5.90;99.90
22629;DHT22;11481;53.694;9.910;2023-04-03T08:20:30;6.00;99.90
22629;DHT22;11481;53.694;9.910;2023-04-03T08:22:57;6.10;99.90
22629;DHT22;11481;53.694;9.910;2023-04-03T08:25:24;6.00;99.90
22629;DHT22;11481;53.694;9.910;2023-04-03T08:27:53;6.10;99.90
22629;DHT22;11481;53.694;9.910;2023-04-03T08:30:19;6.20;99.90
22629;DHT22;11481;53.694;9.910;2023-04-03T08:32:46;6.40;99.90
22629;DHT22;11481;53.694;9.910;2023-04-03T08:35:13;6.30;99.90
22629;DHT22;11481;53.694;9.910;2023-04-03T08:37:40;6.30;99.90
22629;DHT22;11481;53.694;9.910;2023-04-03T08:40:14;6.40;99.90
22629;DHT22;11481;53.694;9.910;2023-04-03T08:48:04;6.20;99.90
22629;DHT22;11481;53.694;9.910;2023-04-03T08:50:38;6.30;99.90
22629;DHT22;11481;53.694;9.910;2023-04-03T08:53:14;6.30;99.90
22629;DHT22;11481;53.694;9.910;2023-04-03T08:55:50;6.30;99.90
22629;DHT22;11481;53.694;9.910;2023-04-03T08:58:33;6.40;99.90
22629;DHT22;11481;53.694;9.910;2023-04-03T09:01:05;6.60;99.90
22629;DHT22;11481;53.694;9.910;2023-04-03T09:03:39;6.80;99.90
22629;DHT22;11481;53.694;9.910;2023-04-03T09:06:24;7.00;99.90
22629;DHT22;11481;53.694;9.910;2023-04-03T09:11:44;7.10;99.90
22629;DHT22;11481;53.694;9.910;2023-04-03T09:14:31;7.00;99.90
22629;DHT22;11481;53.694;9.910;2023-04-03T09:17:06;6.80;99.90
22629;DHT22;11481;53.694;9.910;2023-04-03T09:19:44;7.00;99.90
22629;DHT22;11481;53.694;9.910;2023-04-03T09:22:25;7.10;99.90
22629;DHT22;11481;53.694;9.910;2023-04-03T09:27:27;7.40;99.90
22629;DHT22;11481;53.694;9.910;2023-04-03T09:29:56;7.60;99.90
22629;DHT22;11481;53.694;9.910;2023-04-03T09:32:34;7.40;99.90
22629;DHT22;11481;53.694;9.910;2023-04-03T09:35:25;7.40;99.90
22629;DHT22;11481;53.694;9.910;2023-04-03T09:40:40;7.60;99.90
22629;DHT22;11481;53.694;9.910;2023-04-03T09:45:51;7.90;99.90
22629;DHT22;11481;53.694;9.910;2023-04-03T09:48:22;8.10;99.90
22629;DHT22;11481;53.694;9.910;2023-04-03T09:55:57;8.50;99.90
22629;DHT22;11481;53.694;9.910;2023-04-03T09:58:47;8.70;99.90
22629;DHT22;11481;53.694;9.910;2023-04-03T10:01:37;8.60;99.90
22629;DHT22;11481;53.694;9.910;2023-04-03T10:04:12;8.70;99.90
22629;DHT22;11481;53.694;9.910;2023-04-03T10:06:41;8.20;99.90
22629;DHT22;11481;53.694;9.910;2023-04-03T10:09:27;8.20;99.90
22629;DHT22;11481;53.694;9.910;2023-04-03T10:12:00;8.30;99.90
22629;DHT22;11481;53.694;9.910;2023-04-03T10:14:40;8.20;99.90
22629;DHT22;11481;53.694;9.910;2023-04-03T10:17:19;8.40;99.90
22629;DHT22;11481;53.694;9.910;2023-04-03T10:20:07;8.60;99.90
22629;DHT22;11481;53.694;9.910;2023-04-03T10:30:57;9.10;99.90
22629;DHT22;11481;53.694;9.910;2023-04-03T10:33:37;9.20;99.90
22629;DHT22;11481;53.694;9.910;2023-04-03T10:39:26;9.40;99.90
22629;DHT22;11481;53.694;9.910;2023-04-03T10:45:08;8.50;99.90
22629;DHT22;11481;53.694;9.910;2023-04-03T10:56:37;9.20;99.90
22629;DHT22;11481;53.694;9.910;2023-04-03T10:59:25;9.50;99.90
22629;DHT22;11481;53.694;9.910;2023-04-03T11:02:06;9.90;99.90
22629;DHT22;11481;53.694;9.910;2023-04-03T11:04:36;10.10;99.90
22629;DHT22;11481;53.694;9.910;2023-04-03T11:09:48;10.20;99.90
22629;DHT22;11481;53.694;9.910;2023-04-03T11:12:33;10.10;99.90
22629;DHT22;11481;53.694;9.910;2023-04-03T11:15:03;10.30;99.90
22629;DHT22;11481;53.694;9.910;2023-04-03T11:17:43;10.30;99.90
22629;DHT22;11481;53.694;9.910;2023-04-03T11:20:28;10.30;99.90
22629;DHT22;11481;53.694;9.910;2023-04-03T11:23:04;10.50;99.90
22629;DHT22;11481;53.694;9.910;2023-04-03T11:25:35;10.60;99.90
22629;DHT22;11481;53.694;9.910;2023-04-03T11:28:09;10.60;99.90
22629;DHT22;11481;53.694;9.910;2023-04-03T11:33:58;10.80;99.90
22629;DHT22;11481;53.694;9.910;2023-04-03T11:36:33;10.90;99.90
22629;DHT22;11481;53.694;9.910;2023-04-03T11:41:52;10.80;99.90
22629;DHT22;11481;53.694;9.910;2023-04-03T11:44:35;10.80;99.90
22629;DHT22;11481;53.694;9.910;2023-04-03T11:47:06;10.80;99.90
22629;DHT22;11481;53.694;9.910;2023-04-03T11:50:02;10.90;99.90
22629;DHT22;11481;53.694;9.910;2023-04-03T11:55:41;11.00;99.90
22629;DHT22;11481;53.694;9.910;2023-04-03T11:58:20;11.10;99.90
22629;DHT22;11481;53.694;9.910;2023-04-03T12:00:53;11.00;99.90
22629;DHT22;11481;53.694;9.910;2023-04-03T12:05:55;9.70;99.90
22629;DHT22;11481;53.694;9.910;2023-04-03T12:08:29;9.30;99.90
22629;DHT22;11481;53.694;9.910;2023-04-03T12:22:04;9.20;99.90
22629;DHT22;11481;53.694;9.910;2023-04-03T12:26:47;9.50;99.90
22629;DHT22;11481;53.694;9.910;2023-04-03T12:29:27;9.80;99.90
22629;DHT22;11481;53.694;9.910;2023-04-03T12:32:51;10.00;99.90
22629;DHT22;11481;53.694;9.910;2023-04-03T12:35:03;10.00;99.90
22629;DHT22;11481;53.694;9.910;2023-04-03T12:41:15;10.70;99.90
22629;DHT22;11481;53.694;9.910;2023-04-03T12:46:33;10.20;99.90
22629;DHT22;11481;53.694;9.910;2023-04-03T12:49:04;10.50;99.90
22629;DHT22;11481;53.694;9.910;2023-04-03T12:51:45;10.90;99.90
22629;DHT22;11481;53.694;9.910;2023-04-03T12:54:37;10.30;99.90
22629;DHT22;11481;53.694;9.910;2023-04-03T12:57:18;10.50;99.90
22629;DHT22;11481;53.694;9.910;2023-04-03T12:59:46;10.50;99.90
22629;DHT22;11481;53.694;9.910;2023-04-03T13:02:31;10.60;99.90
22629;DHT22;11481;53.694;9.910;2023-04-03T13:05:06;10.50;99.90
22629;DHT22;11481;53.694;9.910;2023-04-03T13:07:37;10.00;99.90
22629;DHT22;11481;53.694;9.910;2023-04-03T13:12:50;10.60;99.90
22629;DHT22;11481;53.694;9.910;2023-04-03T13:15:29;10.90;99.90
22629;DHT22;11481;53.694;9.910;2023-04-03T13:17:56;11.20;99.90
22629;DHT22;11481;53.694;9.910;2023-04-03T13:20:30;11.60;99.90
22629;DHT22;11481;53.694;9.910;2023-04-03T13:23:17;11.70;99.90
22629;DHT22;11481;53.694;9.910;2023-04-03T13:25:45;11.70;99.90
22629;DHT22;11481;53.694;9.910;2023-04-03T13:28:15;11.80;99.90
22629;DHT22;11481;53.694;9.910;2023-04-03T13:36:36;11.10;99.90
22629;DHT22;11481;53.694;9.910;2023-04-03T13:41:44;12.00;99.90
22629;DHT22;11481;53.694;9.910;2023-04-03T13:46:58;12.20;99.90
22629;DHT22;11481;53.694;9.910;2023-04-03T13:49:36;12.30;99.90
22629;DHT22;11481;53.694;9.910;2023-04-03T13:52:27;12.20;99.90
22629;DHT22;11481;53.694;9.910;2023-04-03T13:55:00;12.00;99.90
22629;DHT22;11481;53.694;9.910;2023-04-03T13:57:31;11.60;99.90
22629;DHT22;11481;53.694;9.910;2023-04-03T13:59:58;11.10;99.90
22629;DHT22;11481;53.694;9.910;2023-04-03T14:02:33;11.10;99.90
22629;DHT22;11481;53.694;9.910;2023-04-03T14:05:03;11.60;99.90
22629;DHT22;11481;53.694;9.910;2023-04-03T14:07:30;12.10;99.90
22629;DHT22;11481;53.694;9.910;2023-04-03T14:09:57;12.50;99.90
22629;DHT22;11481;53.694;9.910;2023-04-03T14:12:37;12.50;99.90
22629;DHT22;11481;53.694;9.910;2023-04-03T14:15:20;12.30;99.90
22629;DHT22;11481;53.694;9.910;2023-04-03T14:17:48;12.00;99.90
22629;DHT22;11481;53.694;9.910;2023-04-03T14:20:17;11.60;99.90
22629;DHT22;11481;53.694;9.910;2023-04-03T14:22:44;11.60;99.90
22629;DHT22;11481;53.694;9.910;2023-04-03T14:25:12;11.30;99.90
22629;DHT22;11481;53.694;9.910;2023-04-03T14:27:47;11.50;99.90
22629;DHT22;11481;53.694;9.910;2023-04-03T14:30:23;11.70;99.90
22629;DHT22;11481;53.694;9.910;2023-04-03T14:32:51;11.90;99.90
22629;DHT22;11481;53.694;9.910;2023-04-03T14:35:18;12.10;99.90
22629;DHT22;11481;53.694;9.910;2023-04-03T14:37:46;12.30;99.90
22629;DHT22;11481;53.694;9.910;2023-04-03T14:40:17;12.50;99.90
22629;DHT22;11481;53.694;9.910;2023-04-03T14:42:45;12.50;99.90
22629;DHT22;11481;53.694;9.910;2023-04-03T14:45:14;12.00;99.90
22629;DHT22;11481;53.694;9.910;2023-04-03T14:47:51;11.80;99.90
22629;DHT22;11481;53.694;9.910;2023-04-03T14:50:22;11.90;99.90
22629;DHT22;11481;53.694;9.910;2023-04-03T14:52:52;12.00;99.90
22629;DHT22;11481;53.694;9.910;2023-04-03T14:55:22;11.70;99.90
22629;DHT22;11481;53.694;9.910;2023-04-03T14:57:49;11.50;99.90
22629;DHT22;11481;53.694;9.910;2023-04-03T15:00:19;11.50;99.90
22629;DHT22;11481;53.694;9.910;2023-04-03T15:02:46;11.50;99.90
22629;DHT22;11481;53.694;9.910;2023-04-03T15:05:15;11.40;99.90
22629;DHT22;11481;53.694;9.910;2023-04-03T15:07:46;11.50;99.90
22629;DHT22;11481;53.694;9.910;2023-04-03T15:10:22;11.10;99.90
22629;DHT22;11481;53.694;9.910;2023-04-03T15:12:50;10.70;99.90
22629;DHT22;11481;53.694;9.910;2023-04-03T15:15:19;10.50;99.90
22629;DHT22;11481;53.694;9.910;2023-04-03T15:17:52;10.40;99.90
22629;DHT22;11481;53.694;9.910;2023-04-03T15:20:23;10.50;99.90
22629;DHT22;11481;53.694;9.910;2023-04-03T15:22:50;10.80;99.90
22629;DHT22;11481;53.694;9.910;2023-04-03T15:25:17;11.00;99.90
22629;DHT22;11481;53.694;9.910;2023-04-03T15:27:45;11.30;99.90
22629;DHT22;11481;53.694;9.910;2023-04-03T15:30:14;11.50;99.90
22629;DHT22;11481;53.694;9.910;2023-04-03T15:32:42;11.80;99.90
22629;DHT22;11481;53.694;9.910;2023-04-03T15:35:09;11.70;99.90
22629;DHT22;11481;53.694;9.910;2023-04-03T15:37:36;11.30;99.90
22629;DHT22;11481;53.694;9.910;2023-04-03T15:40:04;11.50;99.90
22629;DHT22;11481;53.694;9.910;2023-04-03T15:42:31;11.80;99.90
22629;DHT22;11481;53.694;9.910;2023-04-03T15:44:58;11.90;99.90
22629;DHT22;11481;53.694;9.910;2023-04-03T15:47:26;12.20;99.90
22629;DHT22;11481;53.694;9.910;2023-04-03T15:49:54;12.60;99.90
22629;DHT22;11481;53.694;9.910;2023-04-03T15:52:21;12.90;99.90
22629;DHT22;11481;53.694;9.910;2023-04-03T15:54:48;13.10;99.90
22629;DHT22;11481;53.694;9.910;2023-04-03T15:57:14;13.10;99.90
22629;DHT22;11481;53.694;9.910;2023-04-03T15:59:41;12.90;99.90
22629;DHT22;11481;53.694;9.910;2023-04-03T16:02:10;12.80;99.90
22629;DHT22;11481;53.694;9.910;2023-04-03T16:04:39;12.60;99.90
22629;DHT22;11481;53.694;9.910;2023-04-03T16:07:07;12.40;99.90
22629;DHT22;11481;53.694;9.910;2023-04-03T16:09:34;11.70;99.90
22629;DHT22;11481;53.694;9.910;2023-04-03T16:12:01;11.60;99.90
22629;DHT22;11481;53.694;9.910;2023-04-03T16:14:29;11.30;99.90
22629;DHT22;11481;53.694;9.910;2023-04-03T16:16:58;11.20;99.90
22629;DHT22;11481;53.694;9.910;2023-04-03T16:19:26;11.30;99.90
22629;DHT22;11481;53.694;9.910;2023-04-03T16:21:54;11.50;99.90
22629;DHT22;11481;53.694;9.910;2023-04-03T16:24:20;11.70;99.90
22629;DHT22;11481;53.694;9.910;2023-04-03T16:26:49;12.00;99.90
22629;DHT22;11481;53.694;9.910;2023-04-03T16:29:16;12.30;99.90
22629;DHT22;11481;53.694;9.910;2023-04-03T16:31:44;12.40;99.90
22629;DHT22;11481;53.694;9.910;2023-04-03T16:34:11;12.60;99.90
22629;DHT22;11481;53.694;9.910;2023-04-03T16:36:38;12.50;99.90
22629;DHT22;11481;53.694;9.910;2023-04-03T16:39:05;12.50;99.90
22629;DHT22;11481;53.694;9.910;2023-04-03T16:41:31;12.60;99.90
22629;DHT22;11481;53.694;9.910;2023-04-03T16:43:58;12.70;99.90
22629;DHT22;11481;53.694;9.910;2023-04-03T16:46:25;12.80;99.90
22629;DHT22;11481;53.694;9.910;2023-04-03T16:48:52;12.70;99.90
22629;DHT22;11481;53.694;9.910;2023-04-03T16:51:19;12.60;99.90
22629;DHT22;11481;53.694;9.910;2023-04-03T16:53:45;12.70;99.90
22629;DHT22;11481;53.694;9.910;2023-04-03T16:56:12;12.90;99.90
22629;DHT22;11481;53.694;9.910;2023-04-03T16:58:39;12.70;99.90
22629;DHT22;11481;53.694;9.910;2023-04-03T17:01:17;12.90;99.90
22629;DHT22;11481;53.694;9.910;2023-04-03T17:03:44;13.20;99.90
22629;DHT22;11481;53.694;9.910;2023-04-03T17:06:16;13.30;99.90
22629;DHT22;11481;53.694;9.910;2023-04-03T17:08:48;13.40;99.90
22629;DHT22;11481;53.694;9.910;2023-04-03T17:11:14;13.60;99.90
22629;DHT22;11481;53.694;9.910;2023-04-03T17:13:41;13.80;99.90
22629;DHT22;11481;53.694;9.910;2023-04-03T17:16:11;14.00;99.90
22629;DHT22;11481;53.694;9.910;2023-04-03T17:18:39;14.30;99.90
22629;DHT22;11481;53.694;9.910;2023-04-03T17:21:06;14.40;99.90
22629;DHT22;11481;53.694;9.910;2023-04-03T17:23:34;14.20;99.90
22629;DHT22;11481;53.694;9.910;2023-04-03T17:26:02;14.30;99.90
22629;DHT22;11481;53.694;9.910;2023-04-03T17:28:29;14.10;99.90
22629;DHT22;11481;53.694;9.910;2023-04-03T17:31:00;13.90;99.90
22629;DHT22;11481;53.694;9.910;2023-04-03T17:33:28;13.80;99.90
22629;DHT22;11481;53.694;9.910;2023-04-03T17:35:58;14.00;99.90
22629;DHT22;11481;53.694;9.910;2023-04-03T17:38:24;13.90;99.90
22629;DHT22;11481;53.694;9.910;2023-04-03T17:40:51;13.50;99.90
22629;DHT22;11481;53.694;9.910;2023-04-03T17:43:21;13.20;99.90